createdAt,value
2023-02-04T00:00:16.012Z,1.00
2023-02-04T00:02:43.247Z,1.00
2023-02-04T00:05:11.194Z,1.00
2023-02-04T00:07:39.958Z,1.00
2023-02-04T00:10:08.700Z,1.00
2023-02-04T00:12:36.227Z,1.00
2023-02-04T00:15:04.108Z,1.00
2023-02-04T00:17:31.018Z,1.00
2023-02-04T00:19:57.960Z,1.00
2023-02-04T00:22:26.564Z,1.00
2023-02-04T00:24:53.483Z,1.00
2023-02-04T00:27:20.433Z,1.00
2023-02-04T00:29:47.344Z,1.00
2023-02-04T00:32:14.313Z,1.00
2023-02-04T00:34:41.549Z,1.00
2023-02-04T00:37:08.452Z,1.00
2023-02-04T00:39:35.430Z,1.00
2023-02-04T00:42:02.336Z,1.00
2023-02-04T00:44:29.278Z,1.00
2023-02-04T00:46:56.237Z,1.00
2023-02-04T00:49:23.395Z,1.00
2023-02-04T00:51:51.417Z,1.00
2023-02-04T00:54:18.319Z,1.00
2023-02-04T00:56:45.693Z,1.00
2023-02-04T00:59:12.584Z,1.00
2023-02-04T01:01:39.604Z,1.00
2023-02-04T01:04:06.527Z,1.00
2023-02-04T01:06:33.787Z,1.00
2023-02-04T01:09:01.595Z,1.00
2023-02-04T01:11:29.431Z,1.00
2023-02-04T01:13:56.712Z,1.00
2023-02-04T01:16:23.697Z,1.00
2023-02-04T01:18:50.650Z,1.00
2023-02-04T01:21:17.643Z,1.00
2023-02-04T01:23:44.550Z,1.00
2023-02-04T01:26:11.457Z,1.00
2023-02-04T01:28:38.322Z,1.00
2023-02-04T01:31:05.387Z,1.00
2023-02-04T01:33:32.788Z,1.00
2023-02-04T01:35:59.806Z,1.00
2023-02-04T01:38:26.766Z,1.00
2023-02-04T01:40:54.010Z,1.00
2023-02-04T01:43:22.911Z,1.00
2023-02-04T01:45:51.050Z,12.40
2023-02-04T01:48:20.619Z,14.80
2023-02-04T01:50:53.287Z,34.10
2023-02-04T01:53:24.746Z,31.10
2023-02-04T01:55:53.061Z,56.10
2023-02-04T01:58:20.126Z,72.70
2023-02-04T02:00:47.143Z,74.80
2023-02-04T02:03:14.088Z,89.70
2023-02-04T02:05:42.676Z,96.50
2023-02-04T02:08:11.050Z,99.90
2023-02-04T02:10:39.821Z,99.90
2023-02-04T02:13:08.871Z,99.90
2023-02-04T02:15:35.922Z,99.90
2023-02-04T02:18:04.100Z,99.90
2023-02-04T02:20:31.385Z,72.60
2023-02-04T02:23:13.816Z,60.80
2023-02-04T02:25:40.970Z,52.00
2023-02-04T02:28:12.570Z,50.80
2023-02-04T02:30:40.778Z,48.70
2023-02-04T02:33:08.333Z,52.90
2023-02-04T02:35:35.500Z,57.00
2023-02-04T02:38:02.422Z,71.60
2023-02-04T02:40:29.715Z,82.10
2023-02-04T02:42:57.171Z,91.20
2023-02-04T02:45:27.272Z,99.90
2023-02-04T02:47:56.328Z,94.90
2023-02-04T02:50:27.203Z,99.90
2023-02-04T02:52:54.681Z,99.90
2023-02-04T02:55:24.728Z,99.90
2023-02-04T02:57:53.698Z,99.90
2023-02-04T03:00:26.947Z,99.90
2023-02-04T03:03:12.698Z,99.90
2023-02-04T03:05:43.640Z,99.90
2023-02-04T03:08:12.849Z,99.90
2023-02-04T03:10:40.000Z,99.90
2023-02-04T03:13:07.281Z,99.90
2023-02-04T03:15:34.895Z,99.90
2023-02-04T03:18:02.615Z,99.90
2023-02-04T03:20:31.925Z,99.90
2023-02-04T03:22:59.605Z,99.90
2023-02-04T03:25:28.365Z,99.90
2023-02-04T03:27:58.007Z,99.90
2023-02-04T03:30:26.079Z,99.90
2023-02-04T03:32:53.579Z,99.90
2023-02-04T03:35:20.970Z,99.90
2023-02-04T03:37:48.391Z,99.90
2023-02-04T03:40:16.143Z,99.90
2023-02-04T03:42:43.089Z,99.90
2023-02-04T03:45:10.229Z,99.90
2023-02-04T03:47:37.439Z,99.90
2023-02-04T03:50:05.290Z,99.90
2023-02-04T03:52:32.549Z,99.90
2023-02-04T03:55:00.299Z,99.90
2023-02-04T03:57:27.425Z,99.90
2023-02-04T03:59:54.334Z,99.90
2023-02-04T04:02:21.310Z,99.90
2023-02-04T04:04:48.373Z,99.90
2023-02-04T04:07:15.577Z,99.90
2023-02-04T04:09:42.563Z,99.90
2023-02-04T04:12:09.517Z,99.90
2023-02-04T04:14:37.076Z,99.90
2023-02-04T04:17:04.044Z,99.90
2023-02-04T04:19:32.314Z,99.90
2023-02-04T04:21:59.348Z,99.90
2023-02-04T04:24:26.760Z,99.90
2023-02-04T04:26:53.850Z,99.90
2023-02-04T04:29:20.698Z,99.90
2023-02-04T04:31:47.668Z,99.90
2023-02-04T04:34:14.573Z,99.90
2023-02-04T04:36:41.428Z,99.90
2023-02-04T04:39:08.308Z,99.90
2023-02-04T04:41:35.182Z,99.90
2023-02-04T04:44:02.069Z,99.90
2023-02-04T04:46:28.993Z,99.90
2023-02-04T04:48:55.975Z,99.90
2023-02-04T04:51:22.879Z,99.90
2023-02-04T04:53:49.799Z,99.90
2023-02-04T04:56:16.691Z,99.90
2023-02-04T04:58:43.597Z,99.90
2023-02-04T05:01:10.598Z,99.90
2023-02-04T05:03:37.762Z,99.90
2023-02-04T05:06:04.779Z,99.90
2023-02-04T05:08:31.713Z,99.90
2023-02-04T05:10:58.554Z,99.90
2023-02-04T05:13:25.493Z,99.90
2023-02-04T05:15:52.360Z,99.90
2023-02-04T05:18:19.265Z,99.90
2023-02-04T05:20:46.148Z,99.90
2023-02-04T05:23:13.202Z,99.90
2023-02-04T05:25:40.139Z,99.90
2023-02-04T05:28:07.655Z,99.90
2023-02-04T05:30:35.163Z,99.90
2023-02-04T05:33:02.270Z,99.90
2023-02-04T05:35:29.186Z,99.90
2023-02-04T05:37:56.110Z,99.90
2023-02-04T05:40:23.050Z,99.90
2023-02-04T05:42:50.004Z,99.90
2023-02-04T05:45:18.976Z,99.90
2023-02-04T05:47:46.169Z,99.90
2023-02-04T05:50:13.173Z,99.90
2023-02-04T05:52:40.553Z,99.90
2023-02-04T05:55:08.499Z,99.90
2023-02-04T05:57:35.486Z,99.90
2023-02-04T06:00:02.693Z,99.90
2023-02-04T06:02:29.642Z,99.90
2023-02-04T06:04:56.617Z,99.90
2023-02-04T06:07:23.662Z,99.90
2023-02-04T06:09:53.761Z,99.90
2023-02-04T06:12:20.641Z,99.90
2023-02-04T06:14:47.606Z,99.90
2023-02-04T06:17:14.509Z,99.90
2023-02-04T06:19:41.407Z,99.90
2023-02-04T06:22:08.341Z,99.90
2023-02-04T06:24:35.265Z,99.90
2023-02-04T06:27:02.363Z,99.90
2023-02-04T06:29:29.273Z,99.90
2023-02-04T06:31:56.287Z,99.90
2023-02-04T06:34:23.321Z,99.90
2023-02-04T06:36:50.222Z,99.90
2023-02-04T06:39:17.216Z,99.90
2023-02-04T06:41:44.181Z,99.90
2023-02-04T06:44:11.138Z,99.90
2023-02-04T06:46:38.057Z,99.90
2023-02-04T06:49:04.958Z,99.90
2023-02-04T06:51:32.193Z,99.90
2023-02-04T06:53:59.581Z,99.90
2023-02-04T06:56:29.367Z,99.90
2023-02-04T06:58:56.301Z,99.90
2023-02-04T07:01:23.500Z,99.90
2023-02-04T07:03:50.528Z,99.90
2023-02-04T07:06:17.445Z,99.90
2023-02-04T07:08:44.920Z,99.90
2023-02-04T07:11:12.000Z,99.90
2023-02-04T07:13:38.940Z,99.90
2023-02-04T07:16:07.422Z,99.90
2023-02-04T07:18:34.373Z,99.90
2023-02-04T07:21:01.348Z,99.90
2023-02-04T07:23:28.742Z,99.90
2023-02-04T07:25:59.552Z,99.90
2023-02-04T07:28:26.934Z,99.90
2023-02-04T07:30:54.005Z,1.00
2023-02-04T07:33:20.925Z,1.00
2023-02-04T07:35:47.962Z,1.00
2023-02-04T07:38:14.900Z,1.00
2023-02-04T07:40:41.793Z,1.00
2023-02-04T07:43:08.798Z,1.00
2023-02-04T07:45:35.675Z,1.00
2023-02-04T07:48:02.601Z,1.00
2023-02-04T07:50:29.625Z,1.00
2023-02-04T07:52:56.974Z,1.00
2023-02-04T07:55:24.123Z,1.00
2023-02-04T07:57:51.220Z,1.00
2023-02-04T08:00:18.484Z,1.00
2023-02-04T08:02:45.474Z,1.00
2023-02-04T08:05:13.167Z,1.00
2023-02-04T08:07:40.107Z,1.00
2023-02-04T08:10:08.828Z,1.00
2023-02-04T08:12:35.719Z,1.00
2023-02-04T08:15:02.758Z,1.00
2023-02-04T08:17:29.738Z,1.00
2023-02-04T08:19:56.976Z,1.00
2023-02-04T08:22:24.100Z,1.00
2023-02-04T08:24:51.128Z,1.00
2023-02-04T08:27:18.142Z,1.00
2023-02-04T08:29:45.284Z,1.00
2023-02-04T08:32:13.417Z,1.00
2023-02-04T08:34:40.645Z,1.00
2023-02-04T08:37:07.575Z,1.00
2023-02-04T08:39:34.514Z,1.00
2023-02-04T08:42:01.448Z,1.00
2023-02-04T08:44:28.386Z,1.00
2023-02-04T08:46:55.376Z,1.00
2023-02-04T08:49:22.315Z,1.00
2023-02-04T08:51:49.248Z,1.00
2023-02-04T08:54:16.247Z,1.00
2023-02-04T08:56:44.204Z,1.00
2023-02-04T08:59:11.205Z,1.00
2023-02-04T09:01:38.127Z,1.00
2023-02-04T09:04:05.052Z,1.00
2023-02-04T09:06:31.944Z,1.00
2023-02-04T09:08:59.055Z,1.00
2023-02-04T09:11:26.068Z,1.00
2023-02-04T09:13:53.253Z,1.00
2023-02-04T09:16:20.221Z,1.00
2023-02-04T09:18:47.235Z,1.00
2023-02-04T09:21:14.305Z,1.00
2023-02-04T09:23:41.224Z,1.00
2023-02-04T09:26:08.175Z,1.00
2023-02-04T09:28:35.112Z,1.00
2023-02-04T09:31:04.254Z,1.00
2023-02-04T09:33:31.441Z,1.00
2023-02-04T09:35:58.498Z,1.00
2023-02-04T09:38:25.535Z,1.00
2023-02-04T09:40:56.090Z,99.90
2023-02-04T09:43:25.859Z,99.90
2023-02-04T09:45:54.299Z,99.90
2023-02-04T09:48:23.514Z,99.90
2023-02-04T09:50:51.759Z,99.90
2023-02-04T09:53:24.327Z,99.90
2023-02-04T09:55:51.986Z,99.90
2023-02-04T09:58:21.708Z,99.90
2023-02-04T10:00:58.217Z,99.90
2023-02-04T10:03:25.472Z,99.90
2023-02-04T10:05:52.841Z,99.90
2023-02-04T10:08:25.062Z,99.90
2023-02-04T10:10:52.148Z,99.90
2023-02-04T10:13:22.685Z,99.90
2023-02-04T10:15:50.941Z,99.90
2023-02-04T10:18:34.729Z,99.90
2023-02-04T10:21:17.363Z,99.90
2023-02-04T10:23:49.410Z,99.90
2023-02-04T10:26:17.173Z,99.90
2023-02-04T10:28:44.169Z,99.90
2023-02-04T10:31:33.945Z,99.90
2023-02-04T10:34:11.285Z,99.90
2023-02-04T10:36:39.340Z,99.90
2023-02-04T10:39:30.421Z,99.90
2023-02-04T10:42:01.696Z,99.90
2023-02-04T10:44:31.845Z,99.90
2023-02-04T10:47:08.797Z,99.90
2023-02-04T10:49:36.652Z,99.90
2023-02-04T10:52:17.940Z,99.90
2023-02-04T10:54:44.895Z,99.90
2023-02-04T10:57:29.908Z,99.90
2023-02-04T11:00:02.313Z,99.90
2023-02-04T11:02:48.282Z,99.90
2023-02-04T11:05:22.499Z,99.90
2023-02-04T11:07:50.300Z,55.20
2023-02-04T11:10:23.245Z,48.00
2023-02-04T11:12:56.234Z,53.20
2023-02-04T11:15:45.028Z,81.00
2023-02-04T11:18:14.065Z,96.90
2023-02-04T11:20:42.194Z,99.90
2023-02-04T11:23:27.386Z,99.90
2023-02-04T11:26:21.887Z,99.90
2023-02-04T11:28:50.890Z,99.90
2023-02-04T11:31:20.763Z,99.90
2023-02-04T11:33:49.631Z,99.90
2023-02-04T11:36:18.036Z,99.90
2023-02-04T11:38:49.937Z,99.90
2023-02-04T11:41:33.425Z,99.90
2023-02-04T11:44:00.665Z,99.90
2023-02-04T11:46:29.490Z,99.90
2023-02-04T11:48:58.599Z,99.90
2023-02-04T11:51:32.635Z,99.90
2023-02-04T11:54:00.513Z,99.90
2023-02-04T11:56:30.031Z,99.90
2023-02-04T11:58:59.017Z,99.90
2023-02-04T12:01:32.346Z,99.90
2023-02-04T12:04:02.131Z,99.90
2023-02-04T12:06:33.154Z,99.90
2023-02-04T12:09:07.931Z,99.90
2023-02-04T12:11:35.614Z,99.90
2023-02-04T12:14:10.892Z,99.90
2023-02-04T12:16:56.616Z,99.90
2023-02-04T12:19:25.221Z,99.90
2023-02-04T12:21:53.334Z,99.90
2023-02-04T12:24:20.335Z,99.90
2023-02-04T12:26:47.297Z,99.90
2023-02-04T12:29:14.233Z,99.90
2023-02-04T12:31:41.317Z,99.90
2023-02-04T12:34:08.305Z,99.90
2023-02-04T12:36:35.225Z,99.90
2023-02-04T12:39:03.149Z,99.90
2023-02-04T12:41:30.137Z,99.90
2023-02-04T12:43:57.006Z,99.90
2023-02-04T12:46:24.097Z,99.90
2023-02-04T12:48:51.910Z,99.90
2023-02-04T12:51:20.960Z,99.90
2023-02-04T12:53:48.739Z,99.90
2023-02-04T12:56:16.165Z,99.90
2023-02-04T12:58:43.054Z,99.90
2023-02-04T13:01:10.103Z,99.90
2023-02-04T13:03:37.047Z,99.90
2023-02-04T13:06:04.197Z,99.90
2023-02-04T13:08:31.181Z,99.90
2023-02-04T13:10:58.154Z,99.90
2023-02-04T13:13:25.078Z,99.90
2023-02-04T13:15:52.035Z,99.90
2023-02-04T13:18:18.958Z,99.90
2023-02-04T13:20:46.257Z,91.70
2023-02-04T13:23:14.156Z,32.20
2023-02-04T13:25:41.059Z,1.00
2023-02-04T13:28:08.021Z,1.00
2023-02-04T13:30:35.072Z,1.00
2023-02-04T13:33:02.272Z,1.00
2023-02-04T13:35:29.181Z,1.00
2023-02-04T13:37:56.607Z,1.00
2023-02-04T13:40:23.610Z,1.00
2023-02-04T13:42:50.560Z,3.00
2023-02-04T13:45:18.967Z,20.30
2023-02-04T13:47:48.035Z,42.50
2023-02-04T13:50:16.589Z,48.40
2023-02-04T13:52:43.520Z,49.30
2023-02-04T13:55:10.769Z,71.70
2023-02-04T13:57:39.213Z,89.20
2023-02-04T14:00:07.413Z,99.90
2023-02-04T14:02:34.677Z,99.90
2023-02-04T14:05:01.842Z,99.90
2023-02-04T14:07:30.590Z,99.90
2023-02-04T14:09:57.664Z,99.90
2023-02-04T14:12:24.670Z,90.70
2023-02-04T14:14:52.391Z,74.20
2023-02-04T14:17:19.382Z,23.70
2023-02-04T14:19:46.381Z,15.70
2023-02-04T14:22:13.795Z,4.30
2023-02-04T14:24:42.849Z,1.00
2023-02-04T14:27:10.885Z,1.00
2023-02-04T14:29:37.777Z,1.00
2023-02-04T14:32:05.163Z,1.00
2023-02-04T14:34:32.184Z,1.00
2023-02-04T14:36:59.240Z,1.00
2023-02-04T14:39:26.282Z,1.00
2023-02-04T14:41:53.277Z,1.00
2023-02-04T14:44:21.089Z,1.00
2023-02-04T14:46:49.292Z,1.00
2023-02-04T14:49:17.002Z,1.00
2023-02-04T14:51:44.428Z,1.00
2023-02-04T14:54:11.628Z,1.00
2023-02-04T14:56:38.986Z,1.00
2023-02-04T14:59:06.197Z,1.00
2023-02-04T15:01:33.311Z,1.00
2023-02-04T15:04:00.310Z,1.00
2023-02-04T15:06:27.464Z,1.00
2023-02-04T15:08:54.479Z,1.00
2023-02-04T15:11:21.733Z,1.00
2023-02-04T15:13:48.746Z,1.00
2023-02-04T15:16:15.724Z,1.00
2023-02-04T15:18:42.974Z,1.00
2023-02-04T15:21:10.239Z,1.00
2023-02-04T15:23:37.890Z,1.00
2023-02-04T15:26:05.056Z,1.00
2023-02-04T15:28:31.993Z,1.00
2023-02-04T15:30:59.168Z,1.00
2023-02-04T15:33:26.353Z,1.00
2023-02-04T15:35:53.460Z,1.00
2023-02-04T15:38:20.599Z,1.00
2023-02-04T15:40:47.944Z,1.00
2023-02-04T15:43:14.939Z,1.00
2023-02-04T15:45:44.092Z,1.00
2023-02-04T15:48:11.612Z,1.00
2023-02-04T15:50:39.773Z,1.00
2023-02-04T15:53:06.908Z,1.00
2023-02-04T15:55:34.849Z,1.00
2023-02-04T15:58:01.847Z,1.00
2023-02-04T16:00:29.039Z,1.00
2023-02-04T16:02:56.262Z,1.00
2023-02-04T16:05:23.661Z,1.00
2023-02-04T16:07:50.652Z,1.00
2023-02-04T16:10:19.336Z,1.00
2023-02-04T16:12:47.682Z,1.00
2023-02-04T16:15:15.456Z,1.00
2023-02-04T16:17:43.376Z,1.00
2023-02-04T16:20:11.683Z,1.00
2023-02-04T16:22:38.733Z,1.00
2023-02-04T16:25:06.978Z,1.00
2023-02-04T16:27:34.213Z,10.20
2023-02-04T16:30:01.810Z,52.40
2023-02-04T16:32:29.366Z,99.90
2023-02-04T16:34:56.935Z,1.00
2023-02-04T16:37:24.265Z,1.00
2023-02-04T16:39:52.290Z,1.00
2023-02-04T16:42:19.310Z,1.00
2023-02-04T16:44:46.347Z,1.00
2023-02-04T16:47:13.965Z,1.00
2023-02-04T16:49:40.840Z,47.90
2023-02-04T16:52:10.852Z,99.90
2023-02-04T16:54:37.854Z,99.90
2023-02-04T16:57:04.972Z,35.10
2023-02-04T16:59:32.332Z,99.90
2023-02-04T17:02:00.875Z,99.90
2023-02-04T17:04:28.808Z,99.90
2023-02-04T17:06:56.730Z,99.90
2023-02-04T17:09:23.734Z,38.00
2023-02-04T17:11:51.240Z,91.30
2023-02-04T17:14:18.903Z,1.00
2023-02-04T17:16:47.237Z,1.00
2023-02-04T17:19:17.565Z,1.00
2023-02-04T17:21:45.356Z,1.00
2023-02-04T17:24:12.701Z,1.00
2023-02-04T17:26:40.395Z,1.00
2023-02-04T17:29:12.395Z,1.00
2023-02-04T17:31:39.964Z,1.00
2023-02-04T17:34:07.131Z,99.90
2023-02-04T17:36:34.199Z,99.90
2023-02-04T17:39:02.479Z,99.90
2023-02-04T17:41:30.794Z,99.90
2023-02-04T17:43:59.046Z,99.90
2023-02-04T17:46:26.258Z,99.90
2023-02-04T17:48:53.351Z,99.90
2023-02-04T17:51:20.480Z,99.90
2023-02-04T17:53:47.558Z,99.90
2023-02-04T17:56:15.149Z,99.90
2023-02-04T17:58:43.092Z,51.90
2023-02-04T18:01:15.141Z,69.80
2023-02-04T18:03:42.964Z,20.80
2023-02-04T18:06:19.914Z,17.70
2023-02-04T18:08:47.106Z,1.00
2023-02-04T18:11:25.913Z,1.00
2023-02-04T18:13:59.843Z,1.00
2023-02-04T18:16:33.987Z,7.00
2023-02-04T18:19:17.343Z,1.00
2023-02-04T18:21:44.708Z,23.70
2023-02-04T18:24:19.462Z,47.10
2023-02-04T18:26:52.587Z,35.50
2023-02-04T18:29:26.694Z,47.90
2023-02-04T18:31:59.537Z,56.70
2023-02-04T18:34:41.335Z,45.60
2023-02-04T18:37:23.439Z,36.30
2023-02-04T18:39:50.447Z,24.40
2023-02-04T18:42:24.711Z,9.80
2023-02-04T18:44:52.677Z,1.90
2023-02-04T18:47:32.657Z,1.00
2023-02-04T18:50:01.487Z,1.00
2023-02-04T18:52:36.860Z,1.00
2023-02-04T18:55:29.005Z,1.00
2023-02-04T18:57:55.966Z,1.00
2023-02-04T19:00:30.897Z,1.00
2023-02-04T19:03:20.456Z,1.00
2023-02-04T19:05:49.612Z,1.00
2023-02-04T19:08:19.294Z,1.00
2023-02-04T19:10:46.354Z,1.00
2023-02-04T19:13:19.372Z,1.00
2023-02-04T19:16:11.973Z,1.00
2023-02-04T19:18:43.942Z,1.00
2023-02-04T19:21:22.763Z,1.00
2023-02-04T19:23:50.872Z,1.00
2023-02-04T19:26:29.778Z,1.00
2023-02-04T19:28:57.308Z,1.00
2023-02-04T19:31:36.345Z,1.00
2023-02-04T19:34:28.705Z,1.00
2023-02-04T19:36:55.938Z,1.00
2023-02-04T19:39:40.516Z,1.00
2023-02-04T19:42:31.772Z,1.00
2023-02-04T19:45:01.684Z,1.00
2023-02-04T19:47:42.128Z,1.00
2023-02-04T19:50:25.824Z,1.00
2023-02-04T19:53:09.757Z,1.00
2023-02-04T19:55:42.243Z,1.00
2023-02-04T19:58:28.316Z,1.00
2023-02-04T20:00:58.257Z,1.00
2023-02-04T20:03:31.460Z,1.00
2023-02-04T20:06:10.164Z,1.00
2023-02-04T20:08:44.507Z,1.00
2023-02-04T20:11:35.632Z,1.00
2023-02-04T20:14:14.504Z,1.00
2023-02-04T20:16:53.727Z,1.00
2023-02-04T20:19:22.322Z,1.00
2023-02-04T20:22:17.299Z,1.00
2023-02-04T20:24:56.047Z,1.00
2023-02-04T20:27:37.793Z,1.00
2023-02-04T20:30:11.951Z,1.00
2023-02-04T20:32:41.630Z,1.00
2023-02-04T20:35:14.586Z,1.00
2023-02-04T20:37:43.131Z,1.00
2023-02-04T20:40:34.115Z,1.00
2023-02-04T20:43:12.892Z,1.00
2023-02-04T20:46:04.727Z,1.00
2023-02-04T20:48:38.478Z,1.00
2023-02-04T20:51:14.408Z,1.00
2023-02-04T20:53:59.089Z,1.00
2023-02-04T20:56:37.484Z,1.00
2023-02-04T20:59:32.925Z,1.00
2023-02-04T21:02:02.087Z,1.00
2023-02-04T21:04:39.308Z,1.00
2023-02-04T21:07:27.910Z,1.00
2023-02-04T21:09:54.890Z,1.00
2023-02-04T21:12:21.844Z,1.00
2023-02-04T21:14:48.844Z,1.00
2023-02-04T21:17:15.710Z,1.00
2023-02-04T21:19:42.667Z,1.00
2023-02-04T21:22:10.594Z,1.00
2023-02-04T21:24:37.507Z,1.00
2023-02-04T21:27:04.592Z,1.00
2023-02-04T21:29:31.517Z,1.00
2023-02-04T21:31:58.480Z,1.00
2023-02-04T21:34:25.499Z,1.00
2023-02-04T21:36:52.486Z,1.00
2023-02-04T21:39:20.850Z,1.00
2023-02-04T21:41:47.897Z,1.00
2023-02-04T21:44:14.880Z,1.00
2023-02-04T21:46:41.858Z,1.00
2023-02-04T21:49:08.802Z,1.00
2023-02-04T21:51:35.709Z,1.00
2023-02-04T21:54:05.259Z,1.00
2023-02-04T21:56:32.141Z,1.00
2023-02-04T21:58:59.146Z,1.00
2023-02-04T22:01:26.071Z,1.00
2023-02-04T22:03:53.193Z,1.00
2023-02-04T22:06:20.278Z,1.00
2023-02-04T22:08:47.376Z,1.00
2023-02-04T22:11:14.282Z,1.00
2023-02-04T22:14:00.958Z,1.00
2023-02-04T22:16:28.170Z,1.00
2023-02-04T22:18:55.661Z,1.00
2023-02-04T22:21:22.554Z,1.00
2023-02-04T22:23:49.427Z,1.00
2023-02-04T22:26:19.534Z,1.00
2023-02-04T22:28:46.448Z,1.00
2023-02-04T22:31:14.890Z,1.00
2023-02-04T22:33:41.895Z,1.00
2023-02-04T22:36:08.920Z,1.00
2023-02-04T22:38:35.797Z,1.00
2023-02-04T22:41:02.655Z,1.00
2023-02-04T22:43:29.767Z,1.00
2023-02-04T22:45:59.473Z,1.00
2023-02-04T22:48:26.362Z,1.00
2023-02-04T22:50:55.626Z,1.00
2023-02-04T22:53:22.742Z,1.00
2023-02-04T22:55:49.676Z,1.00
2023-02-04T22:58:17.143Z,1.00
2023-02-04T23:00:44.604Z,1.00
2023-02-04T23:03:11.533Z,1.00
2023-02-04T23:05:38.626Z,1.00
2023-02-04T23:08:07.062Z,1.00
2023-02-04T23:10:34.099Z,1.00
2023-02-04T23:13:00.983Z,1.00
2023-02-04T23:15:27.885Z,1.00
2023-02-04T23:17:54.773Z,1.00
2023-02-04T23:20:21.660Z,1.00
2023-02-04T23:22:48.737Z,1.00
2023-02-04T23:25:15.732Z,1.00
2023-02-04T23:27:42.691Z,1.00
2023-02-04T23:30:10.630Z,1.00
2023-02-04T23:32:37.574Z,1.00
2023-02-04T23:35:07.503Z,1.00
2023-02-04T23:37:35.150Z,1.00
2023-02-04T23:40:02.775Z,1.00
2023-02-04T23:42:31.353Z,1.00
2023-02-04T23:44:58.319Z,1.00
2023-02-04T23:47:28.442Z,1.00
2023-02-04T23:49:55.378Z,1.00
2023-02-04T23:52:22.523Z,1.00
2023-02-04T23:54:49.411Z,1.00
2023-02-04T23:57:16.380Z,1.00
2023-02-04T23:59:43.261Z,1.00
